createdAt,value
2018-09-06T00:00:40.010Z,77.79
2018-09-06T00:01:40.591Z,80.21
2018-09-06T00:02:41.023Z,81.36
2018-09-06T00:03:41.429Z,80.61
2018-09-06T00:04:41.916Z,81.69
2018-09-06T00:05:42.376Z,81.53
2018-09-06T00:06:42.850Z,79.35
2018-09-06T00:07:43.458Z,74.09
2018-09-06T00:08:43.798Z,76.02
2018-09-06T00:09:44.271Z,75.97
2018-09-06T00:10:44.746Z,75.02
2018-09-06T00:11:45.231Z,74.91
2018-09-06T00:12:45.695Z,74.00
2018-09-06T00:13:46.169Z,72.28
2018-09-06T00:14:46.644Z,71.02
2018-09-06T00:15:47.119Z,71.18
2018-09-06T00:16:47.593Z,70.84
2018-09-06T00:17:48.067Z,70.26
2018-09-06T00:18:48.544Z,69.69
2018-09-06T00:19:49.016Z,71.20
2018-09-06T00:20:49.494Z,71.43
2018-09-06T00:21:49.963Z,71.24
2018-09-06T00:22:50.441Z,70.82
2018-09-06T00:23:50.912Z,70.07
2018-09-06T00:24:51.436Z,70.87
2018-09-06T00:25:51.860Z,69.78
2018-09-06T00:26:52.333Z,69.65
2018-09-06T00:27:52.806Z,70.68
2018-09-06T00:28:53.279Z,69.74
2018-09-06T00:29:53.759Z,69.34
2018-09-06T00:30:54.226Z,70.18
2018-09-06T00:31:54.704Z,70.33
2018-09-06T00:32:55.174Z,71.13
2018-09-06T00:33:55.644Z,70.63
2018-09-06T00:34:56.121Z,69.97
2018-09-06T00:35:56.591Z,69.69
2018-09-06T00:36:57.064Z,71.12
2018-09-06T00:37:57.540Z,70.64
2018-09-06T00:38:58.010Z,69.74
2018-09-06T00:39:58.480Z,69.71
2018-09-06T00:40:59.157Z,69.45
2018-09-06T00:41:59.425Z,68.97
2018-09-06T00:42:59.896Z,68.53
2018-09-06T00:44:00.369Z,68.24
2018-09-06T00:45:00.837Z,68.35
2018-09-06T00:46:01.310Z,68.46
2018-09-06T00:47:01.781Z,68.22
2018-09-06T00:48:02.252Z,68.58
2018-09-06T00:49:02.722Z,68.95
2018-09-06T00:50:03.195Z,68.79
2018-09-06T00:51:03.663Z,68.89
2018-09-06T00:52:04.135Z,69.16
2018-09-06T00:53:04.607Z,68.86
2018-09-06T00:54:05.078Z,69.28
2018-09-06T00:55:05.550Z,68.94
2018-09-06T00:56:06.017Z,70.14
2018-09-06T00:57:06.488Z,70.24
2018-09-06T00:58:06.961Z,69.06
2018-09-06T00:59:07.432Z,68.98
2018-09-06T01:00:07.909Z,68.69
2018-09-06T01:01:08.369Z,70.25
2018-09-06T01:02:08.841Z,69.56
2018-09-06T01:03:09.312Z,68.85
2018-09-06T01:04:09.783Z,69.01
2018-09-06T01:05:10.254Z,70.13
2018-09-06T01:06:10.726Z,69.83
2018-09-06T01:07:11.199Z,70.35
2018-09-06T01:08:11.671Z,69.67
2018-09-06T01:09:12.142Z,70.38
2018-09-06T01:10:12.611Z,71.33
2018-09-06T01:11:13.083Z,72.80
2018-09-06T01:12:13.556Z,72.13
2018-09-06T01:13:14.027Z,72.22
2018-09-06T01:14:14.500Z,71.73
2018-09-06T01:15:14.972Z,72.04
2018-09-06T01:16:15.446Z,71.44
2018-09-06T01:17:15.918Z,72.42
2018-09-06T01:18:16.392Z,71.78
2018-09-06T01:19:16.864Z,71.34
2018-09-06T01:20:17.339Z,71.41
2018-09-06T01:21:17.811Z,71.90
2018-09-06T01:22:18.284Z,71.49
2018-09-06T01:23:18.761Z,71.38
2018-09-06T01:24:19.235Z,72.02
2018-09-06T01:25:19.710Z,72.20
2018-09-06T01:26:20.182Z,71.88
2018-09-06T01:27:20.656Z,71.72
2018-09-06T01:28:21.133Z,71.49
2018-09-06T01:29:21.607Z,71.54
2018-09-06T01:30:22.082Z,71.31
2018-09-06T01:31:22.556Z,71.47
2018-09-06T01:32:23.032Z,72.06
2018-09-06T01:33:23.504Z,72.36
2018-09-06T01:34:23.978Z,71.52
2018-09-06T01:35:24.454Z,70.99
2018-09-06T01:36:24.928Z,71.02
2018-09-06T01:37:25.402Z,70.22
2018-09-06T01:38:25.915Z,70.41
2018-09-06T01:39:26.351Z,72.02
2018-09-06T01:40:26.826Z,71.26
2018-09-06T01:41:27.297Z,71.36
2018-09-06T01:42:27.773Z,71.76
2018-09-06T01:43:28.245Z,70.56
2018-09-06T01:44:28.719Z,70.33
2018-09-06T01:45:29.191Z,70.55
2018-09-06T01:46:29.665Z,70.83
2018-09-06T01:47:30.139Z,71.16
2018-09-06T01:48:30.613Z,71.30
2018-09-06T01:49:31.085Z,71.33
2018-09-06T01:50:31.554Z,72.28
2018-09-06T01:51:32.029Z,71.48
2018-09-06T01:52:32.502Z,72.68
2018-09-06T01:53:32.974Z,72.80
2018-09-06T01:54:33.506Z,72.49
2018-09-06T01:55:33.918Z,72.48
2018-09-06T01:56:34.393Z,72.40
2018-09-06T01:57:34.863Z,72.93
2018-09-06T01:58:35.331Z,73.00
2018-09-06T01:59:35.805Z,74.13
2018-09-06T02:00:36.277Z,74.97
2018-09-06T02:01:36.745Z,75.77
2018-09-06T02:02:37.219Z,76.26
2018-09-06T02:03:37.688Z,76.60
2018-09-06T02:04:38.158Z,75.17
2018-09-06T02:05:38.627Z,73.47
2018-09-06T02:06:39.099Z,74.06
2018-09-06T02:07:39.570Z,74.46
2018-09-06T02:08:40.044Z,74.94
2018-09-06T02:09:40.510Z,75.93
2018-09-06T02:10:41.131Z,76.30
2018-09-06T02:11:41.455Z,75.71
2018-09-06T02:12:41.924Z,75.30
2018-09-06T02:13:42.393Z,74.58
2018-09-06T02:14:42.864Z,75.65
2018-09-06T02:15:43.338Z,78.18
2018-09-06T02:16:43.882Z,80.38
2018-09-06T02:17:44.279Z,79.83
2018-09-06T02:18:44.747Z,78.46
2018-09-06T02:19:45.218Z,78.01
2018-09-06T02:20:45.690Z,78.70
2018-09-06T02:21:46.161Z,80.32
2018-09-06T02:22:46.633Z,79.90
2018-09-06T02:23:47.105Z,80.23
2018-09-06T02:24:47.576Z,81.13
2018-09-06T02:25:48.050Z,80.13
2018-09-06T02:26:48.524Z,78.25
2018-09-06T02:27:48.993Z,76.52
2018-09-06T02:28:49.466Z,79.44
2018-09-06T02:29:49.937Z,77.29
2018-09-06T02:30:50.411Z,79.47
2018-09-06T02:31:50.885Z,78.63
2018-09-06T02:32:51.357Z,79.59
2018-09-06T02:33:51.833Z,77.94
2018-09-06T02:34:52.305Z,76.43
2018-09-06T02:35:52.779Z,77.00
2018-09-06T02:36:53.254Z,78.44
2018-09-06T02:37:53.727Z,77.73
2018-09-06T02:38:54.201Z,76.20
2018-09-06T02:39:54.674Z,76.54
2018-09-06T02:40:55.148Z,78.67
2018-09-06T02:41:55.624Z,78.79
2018-09-06T02:42:56.104Z,77.66
2018-09-06T02:43:56.572Z,77.33
2018-09-06T02:44:57.051Z,76.91
2018-09-06T02:45:57.522Z,77.27
2018-09-06T02:46:57.994Z,78.81
2018-09-06T02:47:58.469Z,82.02
2018-09-06T02:48:58.943Z,82.30
2018-09-06T02:49:59.419Z,83.17
2018-09-06T02:50:59.890Z,83.15
2018-09-06T02:52:00.364Z,82.91
2018-09-06T02:53:00.840Z,82.56
2018-09-06T02:54:01.341Z,82.58
2018-09-06T02:55:01.785Z,81.87
2018-09-06T02:56:02.262Z,82.42
2018-09-06T02:57:02.734Z,82.55
2018-09-06T02:58:03.207Z,82.56
2018-09-06T02:59:03.680Z,83.48
2018-09-06T03:00:04.150Z,82.00
2018-09-06T03:01:04.622Z,81.27
2018-09-06T03:02:05.095Z,81.68
2018-09-06T03:03:05.571Z,81.87
2018-09-06T03:04:06.043Z,82.56
2018-09-06T03:05:06.513Z,82.34
2018-09-06T03:06:06.984Z,83.00
2018-09-06T03:07:07.457Z,81.93
2018-09-06T03:08:07.932Z,80.76
2018-09-06T03:09:08.400Z,81.26
2018-09-06T03:10:08.872Z,81.68
2018-09-06T03:11:09.346Z,83.90
2018-09-06T03:12:09.816Z,83.83
2018-09-06T03:13:10.284Z,83.50
2018-09-06T03:14:10.755Z,82.98
2018-09-06T03:15:11.228Z,83.10
2018-09-06T03:16:11.747Z,82.59
2018-09-06T03:17:12.168Z,82.41
2018-09-06T03:18:12.640Z,82.40
2018-09-06T03:19:13.112Z,81.45
2018-09-06T03:20:13.590Z,81.96
2018-09-06T03:21:14.054Z,82.75
2018-09-06T03:22:14.523Z,83.21
2018-09-06T03:23:14.992Z,82.28
2018-09-06T03:24:15.461Z,81.64
2018-09-06T03:25:15.964Z,80.72
2018-09-06T03:26:16.446Z,81.36
2018-09-06T03:27:16.875Z,81.00
2018-09-06T03:28:17.346Z,80.67
2018-09-06T03:29:17.820Z,81.35
2018-09-06T03:30:18.287Z,81.45
2018-09-06T03:31:18.757Z,81.57
2018-09-06T03:32:19.229Z,80.59
2018-09-06T03:33:19.699Z,80.69
2018-09-06T03:34:20.171Z,81.32
2018-09-06T03:35:20.649Z,80.16
2018-09-06T03:36:21.115Z,79.75
2018-09-06T03:37:21.587Z,78.89
2018-09-06T03:38:22.059Z,78.26
2018-09-06T03:39:22.530Z,79.81
2018-09-06T03:40:23.002Z,78.22
2018-09-06T03:41:23.475Z,77.93
2018-09-06T03:42:23.948Z,78.51
2018-09-06T03:43:24.421Z,78.70
2018-09-06T03:44:24.898Z,78.28
2018-09-06T03:45:25.371Z,78.19
2018-09-06T03:46:25.840Z,77.77
2018-09-06T03:47:26.313Z,77.89
2018-09-06T03:48:26.788Z,79.26
2018-09-06T03:49:27.263Z,79.52
2018-09-06T03:50:27.737Z,78.92
2018-09-06T03:51:28.209Z,78.58
2018-09-06T03:52:28.690Z,78.39
2018-09-06T03:53:29.162Z,79.21
2018-09-06T03:54:29.635Z,79.18
2018-09-06T03:55:30.114Z,78.73
2018-09-06T03:56:30.581Z,78.01
2018-09-06T03:57:31.056Z,77.81
2018-09-06T03:58:31.531Z,78.18
2018-09-06T03:59:32.005Z,78.57
2018-09-06T04:00:32.480Z,78.61
2018-09-06T04:01:32.954Z,78.08
2018-09-06T04:02:33.427Z,77.64
2018-09-06T04:03:33.901Z,77.30
2018-09-06T04:04:34.375Z,77.29
2018-09-06T04:05:34.854Z,77.38
2018-09-06T04:06:35.321Z,78.01
2018-09-06T04:07:35.797Z,78.26
2018-09-06T04:08:36.270Z,78.16
2018-09-06T04:09:36.740Z,78.93
2018-09-06T04:10:37.213Z,78.99
2018-09-06T04:11:37.686Z,78.90
2018-09-06T04:12:38.160Z,78.61
2018-09-06T04:13:38.633Z,78.02
2018-09-06T04:14:39.104Z,77.97
2018-09-06T04:15:39.577Z,78.15
2018-09-06T04:16:40.050Z,78.20
2018-09-06T04:17:40.521Z,78.21
2018-09-06T04:18:41.008Z,78.28
2018-09-06T04:19:41.471Z,78.71
2018-09-06T04:20:42.005Z,79.24
2018-09-06T04:21:42.412Z,79.25
2018-09-06T04:22:42.880Z,79.49
2018-09-06T04:23:43.349Z,79.29
2018-09-06T04:24:43.820Z,79.07
2018-09-06T04:25:44.292Z,78.76
2018-09-06T04:26:44.814Z,78.72
2018-09-06T04:27:45.230Z,78.97
2018-09-06T04:28:45.703Z,79.12
2018-09-06T04:29:46.176Z,78.99
2018-09-06T04:30:46.644Z,78.78
2018-09-06T04:31:47.116Z,78.56
2018-09-06T04:32:47.585Z,78.52
2018-09-06T04:33:48.055Z,78.41
2018-09-06T04:34:48.526Z,78.45
2018-09-06T04:35:48.995Z,78.59
2018-09-06T04:36:49.469Z,78.70
2018-09-06T04:37:49.938Z,78.86
2018-09-06T04:38:50.406Z,78.81
2018-09-06T04:39:50.879Z,78.91
2018-09-06T04:40:51.350Z,78.76
2018-09-06T04:41:51.824Z,78.77
2018-09-06T04:42:52.291Z,78.81
2018-09-06T04:43:52.810Z,78.93
2018-09-06T04:44:53.238Z,78.97
2018-09-06T04:45:53.707Z,79.02
2018-09-06T04:46:54.179Z,79.00
2018-09-06T04:47:54.649Z,79.11
2018-09-06T04:48:55.127Z,79.02
2018-09-06T04:49:55.594Z,78.81
2018-09-06T04:50:56.067Z,78.86
2018-09-06T04:51:56.539Z,78.65
2018-09-06T04:52:57.011Z,78.73
2018-09-06T04:53:57.485Z,78.73
2018-09-06T04:54:57.957Z,78.63
2018-09-06T04:55:58.429Z,78.59
2018-09-06T04:56:58.903Z,78.40
2018-09-06T04:57:59.379Z,78.04
2018-09-06T04:58:59.850Z,78.00
2018-09-06T05:00:00.324Z,78.07
2018-09-06T05:01:00.800Z,77.97
2018-09-06T05:02:01.274Z,78.08
2018-09-06T05:03:01.748Z,78.13
2018-09-06T05:04:02.222Z,78.04
2018-09-06T05:05:02.702Z,77.75
2018-09-06T05:06:03.170Z,77.52
2018-09-06T05:07:03.646Z,77.26
2018-09-06T05:08:04.117Z,77.19
2018-09-06T05:09:04.594Z,77.55
2018-09-06T05:10:05.070Z,77.57
2018-09-06T05:11:05.539Z,77.75
2018-09-06T05:12:06.016Z,77.40
2018-09-06T05:13:06.490Z,77.76
2018-09-06T05:14:06.964Z,78.07
2018-09-06T05:15:07.436Z,78.20
2018-09-06T05:16:07.913Z,78.43
2018-09-06T05:17:08.385Z,78.60
2018-09-06T05:18:08.857Z,78.40
2018-09-06T05:19:09.330Z,78.57
2018-09-06T05:20:09.804Z,77.97
2018-09-06T05:21:10.277Z,77.93
2018-09-06T05:22:10.751Z,78.10
2018-09-06T05:23:11.220Z,77.48
2018-09-06T05:24:11.693Z,77.20
2018-09-06T05:25:12.168Z,77.29
2018-09-06T05:26:12.643Z,76.98
2018-09-06T05:27:13.113Z,77.45
2018-09-06T05:28:13.583Z,78.07
2018-09-06T05:29:14.053Z,77.63
2018-09-06T05:30:14.526Z,77.43
2018-09-06T05:31:14.997Z,77.66
2018-09-06T05:32:15.469Z,77.22
2018-09-06T05:33:15.939Z,77.09
2018-09-06T05:34:16.411Z,76.97
2018-09-06T05:35:17.080Z,76.59
2018-09-06T05:36:17.455Z,76.40
2018-09-06T05:37:17.873Z,76.21
2018-09-06T05:38:18.295Z,75.75
2018-09-06T05:39:18.764Z,75.71
2018-09-06T05:40:19.234Z,75.86
2018-09-06T05:41:19.708Z,76.09
2018-09-06T05:42:20.176Z,75.81
2018-09-06T05:43:20.648Z,75.72
2018-09-06T05:44:21.116Z,75.60
2018-09-06T05:45:21.589Z,75.87
2018-09-06T05:46:22.057Z,75.98
2018-09-06T05:47:22.548Z,76.00
2018-09-06T05:48:23.000Z,75.99
2018-09-06T05:49:23.470Z,76.14
2018-09-06T05:50:23.941Z,76.20
2018-09-06T05:51:24.414Z,76.49
2018-09-06T05:52:24.882Z,76.62
2018-09-06T05:53:25.399Z,76.33
2018-09-06T05:54:25.830Z,76.21
2018-09-06T05:55:26.297Z,76.22
2018-09-06T05:56:26.776Z,76.20
2018-09-06T05:57:27.244Z,76.11
2018-09-06T05:58:27.712Z,75.81
2018-09-06T05:59:28.220Z,76.06
2018-09-06T06:00:28.659Z,75.73
2018-09-06T06:01:29.130Z,75.68
2018-09-06T06:02:29.603Z,75.60
2018-09-06T06:03:30.075Z,75.93
2018-09-06T06:04:30.549Z,75.57
2018-09-06T06:05:31.030Z,75.72
2018-09-06T06:06:31.497Z,75.63
2018-09-06T06:07:31.967Z,74.64
2018-09-06T06:08:32.443Z,74.32
2018-09-06T06:09:32.919Z,74.16
2018-09-06T06:10:33.392Z,73.79
2018-09-06T06:11:33.865Z,73.68
2018-09-06T06:12:34.341Z,72.67
2018-09-06T06:13:34.814Z,71.92
2018-09-06T06:14:35.289Z,71.63
2018-09-06T06:15:35.763Z,70.41
2018-09-06T06:16:36.239Z,70.05
2018-09-06T06:17:36.714Z,69.17
2018-09-06T06:18:37.187Z,69.05
2018-09-06T06:19:37.659Z,68.07
2018-09-06T06:20:38.138Z,69.23
2018-09-06T06:21:38.613Z,69.17
2018-09-06T06:22:39.084Z,69.73
2018-09-06T06:23:39.560Z,70.29
2018-09-06T06:24:40.033Z,70.81
2018-09-06T06:25:40.508Z,71.39
2018-09-06T06:26:40.981Z,71.86
2018-09-06T06:27:41.453Z,72.07
2018-09-06T06:28:41.929Z,71.85
2018-09-06T06:29:42.402Z,72.55
2018-09-06T06:30:42.906Z,72.74
2018-09-06T06:31:43.372Z,72.93
2018-09-06T06:32:43.823Z,72.71
2018-09-06T06:34:44.767Z,72.20
2018-09-06T06:35:45.242Z,71.81
2018-09-06T06:36:45.715Z,71.04
2018-09-06T06:37:46.185Z,71.58
2018-09-06T06:38:46.660Z,71.79
2018-09-06T06:39:47.178Z,69.66
2018-09-06T06:40:47.603Z,69.40
2018-09-06T06:41:48.075Z,68.44
2018-09-06T06:42:48.548Z,67.16
2018-09-06T06:43:49.019Z,67.05
2018-09-06T06:44:49.493Z,66.82
2018-09-06T06:45:49.963Z,66.90
2018-09-06T06:46:50.436Z,65.83
2018-09-06T06:47:50.906Z,64.56
2018-09-06T06:48:51.382Z,64.26
2018-09-06T06:49:51.849Z,63.96
2018-09-06T06:50:52.319Z,64.56
2018-09-06T06:51:52.792Z,64.81
2018-09-06T06:52:53.262Z,64.74
2018-09-06T06:53:53.733Z,64.38
2018-09-06T06:54:54.205Z,63.96
2018-09-06T06:55:54.673Z,63.92
2018-09-06T06:56:55.145Z,64.05
2018-09-06T06:57:55.617Z,64.55
2018-09-06T06:58:56.089Z,64.17
2018-09-06T06:59:56.556Z,64.07
2018-09-06T07:00:57.100Z,63.51
2018-09-06T07:01:57.500Z,63.34
2018-09-06T07:02:57.972Z,62.84
2018-09-06T07:03:58.444Z,62.73
2018-09-06T07:04:58.916Z,63.12
2018-09-06T07:05:59.388Z,63.84
2018-09-06T07:06:59.973Z,64.29
2018-09-06T07:08:00.329Z,64.68
2018-09-06T07:09:00.800Z,64.57
2018-09-06T07:10:01.273Z,64.74
2018-09-06T07:11:01.750Z,64.21
2018-09-06T07:12:02.218Z,63.80
2018-09-06T07:13:02.692Z,62.97
2018-09-06T07:14:03.163Z,62.67
2018-09-06T07:15:03.636Z,62.86
2018-09-06T07:16:04.109Z,63.44
2018-09-06T07:17:04.588Z,64.55
2018-09-06T07:18:05.132Z,66.13
2018-09-06T07:19:05.533Z,67.15
2018-09-06T07:20:06.004Z,67.29
2018-09-06T07:21:06.481Z,67.26
2018-09-06T07:22:06.961Z,66.29
2018-09-06T07:23:07.430Z,65.52
2018-09-06T07:24:07.904Z,64.90
2018-09-06T07:25:08.383Z,64.82
2018-09-06T07:26:08.854Z,64.75
2018-09-06T07:27:09.329Z,64.47
2018-09-06T07:28:09.805Z,64.47
2018-09-06T07:29:10.279Z,64.27
2018-09-06T07:30:10.757Z,64.35
2018-09-06T07:31:11.235Z,64.36
2018-09-06T07:32:11.708Z,64.43
2018-09-06T07:33:12.186Z,64.56
2018-09-06T07:34:12.659Z,65.19
2018-09-06T07:35:13.182Z,65.03
2018-09-06T07:36:13.610Z,65.47
2018-09-06T07:37:14.084Z,66.75
2018-09-06T07:38:14.560Z,66.63
2018-09-06T07:39:15.035Z,66.90
2018-09-06T07:40:15.510Z,66.61
2018-09-06T07:41:15.988Z,66.29
2018-09-06T07:42:16.465Z,66.12
2018-09-06T07:43:16.935Z,67.90
2018-09-06T07:44:17.411Z,67.08
2018-09-06T07:45:17.885Z,68.68
2018-09-06T07:46:18.362Z,69.85
2018-09-06T07:47:18.837Z,70.93
2018-09-06T07:48:19.312Z,71.33
2018-09-06T07:49:19.789Z,71.63
2018-09-06T07:50:20.264Z,72.12
2018-09-06T07:51:20.739Z,72.27
2018-09-06T07:52:21.264Z,72.10
2018-09-06T07:53:21.692Z,72.24
2018-09-06T07:54:22.167Z,73.24
2018-09-06T07:55:22.643Z,73.31
2018-09-06T07:56:23.119Z,72.76
2018-09-06T07:57:23.593Z,72.55
2018-09-06T07:58:24.070Z,72.65
2018-09-06T07:59:24.545Z,72.78
2018-09-06T08:00:25.023Z,72.92
2018-09-06T08:01:25.516Z,73.29
2018-09-06T08:02:25.972Z,73.02
2018-09-06T08:03:26.450Z,72.39
2018-09-06T08:04:26.926Z,71.73
2018-09-06T08:05:27.403Z,70.99
2018-09-06T08:06:27.879Z,70.44
2018-09-06T08:07:28.354Z,70.51
2018-09-06T08:08:28.829Z,70.56
2018-09-06T08:09:29.313Z,70.40
2018-09-06T08:10:29.787Z,70.51
2018-09-06T08:11:30.262Z,70.44
2018-09-06T08:12:30.739Z,70.16
2018-09-06T08:13:31.216Z,69.98
2018-09-06T08:14:31.694Z,69.83
2018-09-06T08:15:32.173Z,69.74
2018-09-06T08:16:32.650Z,69.56
2018-09-06T08:17:33.127Z,69.48
2018-09-06T08:18:33.610Z,69.68
2018-09-06T08:19:34.090Z,69.31
2018-09-06T08:20:34.567Z,69.39
2018-09-06T08:21:35.044Z,70.30
2018-09-06T08:22:35.526Z,70.33
2018-09-06T08:23:36.005Z,70.45
2018-09-06T08:24:36.485Z,70.02
2018-09-06T08:25:36.969Z,69.63
2018-09-06T08:26:37.444Z,69.45
2018-09-06T08:27:37.925Z,68.89
2018-09-06T08:28:38.408Z,68.40
2018-09-06T08:29:38.887Z,67.60
2018-09-06T08:30:39.454Z,67.05
2018-09-06T08:31:39.848Z,66.69
2018-09-06T08:32:40.329Z,66.52
2018-09-06T08:33:40.810Z,66.29
2018-09-06T08:34:41.290Z,66.81
2018-09-06T08:35:41.871Z,67.06
2018-09-06T08:36:42.305Z,67.61
2018-09-06T08:37:42.731Z,67.41
2018-09-06T08:38:43.313Z,67.35
2018-09-06T08:39:43.693Z,67.37
2018-09-06T08:40:44.168Z,67.79
2018-09-06T08:41:44.650Z,68.85
2018-09-06T08:42:45.129Z,69.18
2018-09-06T08:43:45.607Z,69.48
2018-09-06T08:44:46.085Z,69.73
2018-09-06T08:45:46.564Z,70.24
2018-09-06T08:46:47.043Z,70.67
2018-09-06T08:47:47.544Z,70.65
2018-09-06T08:48:47.998Z,70.68
2018-09-06T08:49:48.479Z,70.17
2018-09-06T08:50:48.953Z,70.15
2018-09-06T08:51:49.431Z,70.55
2018-09-06T08:52:49.909Z,70.83
2018-09-06T08:53:50.386Z,71.27
2018-09-06T08:54:50.861Z,71.51
2018-09-06T08:55:51.340Z,71.09
2018-09-06T08:56:51.813Z,70.47
2018-09-06T08:57:52.291Z,69.69
2018-09-06T08:58:52.768Z,69.29
2018-09-06T08:59:53.245Z,68.83
2018-09-06T09:00:53.719Z,68.58
2018-09-06T09:01:54.196Z,68.70
2018-09-06T09:02:54.815Z,69.01
2018-09-06T09:03:55.147Z,69.29
2018-09-06T09:04:55.623Z,68.30
2018-09-06T09:05:56.124Z,68.70
2018-09-06T09:06:56.576Z,69.43
2018-09-06T09:07:57.049Z,69.43
2018-09-06T09:08:57.573Z,69.11
2018-09-06T09:09:57.999Z,69.58
2018-09-06T09:10:58.473Z,69.64
2018-09-06T09:11:58.951Z,70.34
2018-09-06T09:12:59.428Z,70.45
2018-09-06T09:13:59.901Z,70.30
2018-09-06T09:15:00.372Z,70.32
2018-09-06T09:16:00.874Z,70.71
2018-09-06T09:17:01.319Z,70.53
2018-09-06T09:18:01.796Z,70.71
2018-09-06T09:19:02.269Z,70.92
2018-09-06T09:20:02.744Z,70.92
2018-09-06T09:21:03.223Z,70.94
2018-09-06T09:22:03.768Z,71.02
2018-09-06T09:23:04.167Z,71.14
2018-09-06T09:24:04.699Z,71.29
2018-09-06T09:25:05.119Z,71.35
2018-09-06T09:26:05.589Z,71.38
2018-09-06T09:27:06.063Z,71.36
2018-09-06T09:28:06.538Z,71.10
2018-09-06T09:29:07.032Z,71.32
2018-09-06T09:30:07.488Z,71.01
2018-09-06T09:31:07.958Z,70.97
2018-09-06T09:32:08.432Z,70.76
2018-09-06T09:33:08.905Z,70.67
2018-09-06T09:34:09.430Z,70.19
2018-09-06T09:35:09.859Z,70.10
2018-09-06T09:36:10.328Z,69.82
2018-09-06T09:37:10.799Z,69.80
2018-09-06T09:38:11.273Z,69.35
2018-09-06T09:39:11.749Z,69.93
2018-09-06T09:40:12.220Z,70.24
2018-09-06T09:41:12.693Z,70.53
2018-09-06T09:42:13.168Z,69.83
2018-09-06T09:43:13.687Z,70.50
2018-09-06T09:44:14.116Z,70.65
2018-09-06T09:45:14.588Z,70.62
2018-09-06T09:48:16.013Z,72.23
2018-09-06T09:49:16.479Z,72.63
2018-09-06T09:51:17.426Z,71.81
2018-09-06T09:53:18.375Z,72.52
2018-09-06T09:54:18.851Z,72.85
2018-09-06T09:55:19.322Z,72.78
2018-09-06T09:56:19.797Z,72.42
2018-09-06T09:57:20.268Z,72.81
2018-09-06T09:58:20.741Z,72.52
2018-09-06T09:59:21.216Z,72.27
2018-09-06T10:00:21.693Z,71.76
2018-09-06T10:01:22.161Z,71.75
2018-09-06T10:02:22.636Z,72.08
2018-09-06T10:03:23.109Z,72.64
2018-09-06T10:04:23.585Z,72.66
2018-09-06T10:05:24.060Z,72.50
2018-09-06T10:06:24.587Z,73.65
2018-09-06T10:07:25.004Z,72.41
2018-09-06T10:08:25.478Z,72.95
2018-09-06T10:09:25.952Z,72.77
2018-09-06T10:10:26.425Z,72.89
2018-09-06T10:11:26.900Z,72.13
2018-09-06T10:12:27.372Z,72.28
2018-09-06T10:13:27.845Z,72.24
2018-09-06T10:14:28.319Z,72.55
2018-09-06T10:15:28.792Z,73.18
2018-09-06T10:16:29.266Z,73.17
2018-09-06T10:17:29.740Z,74.11
2018-09-06T10:18:30.212Z,74.49
2018-09-06T10:19:30.687Z,75.06
2018-09-06T10:20:31.169Z,74.96
2018-09-06T10:21:31.633Z,74.43
2018-09-06T10:22:32.109Z,75.24
2018-09-06T10:23:32.581Z,74.18
2018-09-06T10:24:33.055Z,74.05
2018-09-06T10:25:33.530Z,73.16
2018-09-06T10:26:34.004Z,74.07
2018-09-06T10:27:34.476Z,73.15
2018-09-06T10:28:34.948Z,73.10
2018-09-06T10:29:35.423Z,73.73
2018-09-06T10:30:35.894Z,73.94
2018-09-06T10:31:36.368Z,73.36
2018-09-06T10:32:36.841Z,73.28
2018-09-06T10:33:37.322Z,73.51
2018-09-06T10:34:37.788Z,72.79
2018-09-06T10:35:38.263Z,73.84
2018-09-06T10:36:38.737Z,74.29
2018-09-06T10:37:39.208Z,75.99
2018-09-06T10:38:39.683Z,76.21
2018-09-06T10:39:40.156Z,75.36
2018-09-06T10:40:40.642Z,71.75
2018-09-06T10:41:41.102Z,74.11
2018-09-06T10:42:41.574Z,73.34
2018-09-06T10:43:42.049Z,78.60
2018-09-06T10:44:42.522Z,78.94
2018-09-06T10:45:43.024Z,79.80
2018-09-06T10:46:43.469Z,77.20
2018-09-06T10:47:43.978Z,73.84
2018-09-06T10:48:44.416Z,73.96
2018-09-06T10:49:44.939Z,74.67
2018-09-06T10:50:45.363Z,75.44
2018-09-06T10:51:45.835Z,77.52
2018-09-06T10:52:46.311Z,79.20
2018-09-06T10:53:46.782Z,81.02
2018-09-06T10:54:47.258Z,76.45
2018-09-06T10:55:47.732Z,81.64
2018-09-06T10:56:48.203Z,80.63
2018-09-06T10:57:48.677Z,82.33
2018-09-06T10:58:49.150Z,83.81
2018-09-06T10:59:49.624Z,85.69
2018-09-06T11:00:50.099Z,86.68
2018-09-06T11:01:50.571Z,77.97
2018-09-06T11:02:51.046Z,74.56
2018-09-06T11:03:51.521Z,79.41
2018-09-06T11:04:51.993Z,75.94
2018-09-06T11:05:52.465Z,75.79
2018-09-06T11:07:53.424Z,76.44
2018-09-06T11:08:53.890Z,80.57
2018-09-06T11:09:54.360Z,76.64
2018-09-06T11:10:54.838Z,76.78
2018-09-06T11:11:55.308Z,79.33
2018-09-06T11:12:55.780Z,83.60
2018-09-06T11:13:56.255Z,82.35
2018-09-06T11:14:56.770Z,82.09
2018-09-06T11:15:57.202Z,75.18
2018-09-06T11:16:57.676Z,71.43
2018-09-06T11:17:58.172Z,71.76
2018-09-06T11:18:58.622Z,80.91
2018-09-06T11:19:59.102Z,82.69
2018-09-06T11:20:59.603Z,83.41
2018-09-06T11:22:00.190Z,83.13
2018-09-06T11:23:00.519Z,85.21
2018-09-06T11:24:00.993Z,84.82
2018-09-06T11:25:01.467Z,83.43
2018-09-06T11:26:01.940Z,77.86
2018-09-06T11:27:02.415Z,76.20
2018-09-06T11:28:02.894Z,81.51
2018-09-06T11:29:03.363Z,79.85
2018-09-06T11:30:03.837Z,82.44
2018-09-06T11:31:04.311Z,81.95
2018-09-06T11:32:04.783Z,82.08
2018-09-06T11:33:05.264Z,83.01
2018-09-06T11:34:05.733Z,82.46
2018-09-06T11:35:06.206Z,81.66
2018-09-06T11:36:06.680Z,82.89
2018-09-06T11:37:07.158Z,84.09
2018-09-06T11:38:07.629Z,85.09
2018-09-06T11:39:08.104Z,84.66
2018-09-06T11:40:08.599Z,84.58
2018-09-06T11:41:09.050Z,83.48
2018-09-06T11:42:09.525Z,82.70
2018-09-06T11:43:10.001Z,81.52
2018-09-06T11:44:10.479Z,84.31
2018-09-06T11:45:10.950Z,86.39
2018-09-06T11:46:11.421Z,86.82
2018-09-06T11:47:11.964Z,85.36
2018-09-06T11:48:12.370Z,84.57
2018-09-06T11:49:12.847Z,81.73
2018-09-06T11:50:13.325Z,79.66
2018-09-06T11:51:13.794Z,80.83
2018-09-06T11:52:14.270Z,82.99
2018-09-06T11:53:14.743Z,82.41
2018-09-06T11:54:15.217Z,80.71
2018-09-06T11:55:15.693Z,76.59
2018-09-06T11:56:16.168Z,78.25
2018-09-06T11:57:16.644Z,76.52
2018-09-06T11:58:17.119Z,72.96
2018-09-06T11:59:17.592Z,74.93
2018-09-06T12:00:18.117Z,79.97
2018-09-06T12:01:18.540Z,79.18
2018-09-06T12:02:19.016Z,78.65
2018-09-06T12:03:19.489Z,79.58
2018-09-06T12:04:19.963Z,80.99
2018-09-06T12:05:20.442Z,80.21
2018-09-06T12:06:20.914Z,78.63
2018-09-06T12:07:21.387Z,83.85
2018-09-06T12:08:21.864Z,82.32
2018-09-06T12:09:22.340Z,77.96
2018-09-06T12:10:22.813Z,76.95
2018-09-06T12:11:23.291Z,78.60
2018-09-06T12:12:23.765Z,83.32
2018-09-06T12:13:24.237Z,86.30
2018-09-06T12:14:24.713Z,87.35
2018-09-06T12:15:25.188Z,87.13
2018-09-06T12:16:25.662Z,86.48
2018-09-06T12:17:26.138Z,86.94
2018-09-06T12:18:26.619Z,87.86
2018-09-06T12:19:27.159Z,88.60
2018-09-06T12:20:27.612Z,89.14
2018-09-06T12:21:28.042Z,89.72
2018-09-06T12:22:28.513Z,90.13
2018-09-06T12:23:28.987Z,89.73
2018-09-06T12:24:29.463Z,89.72
2018-09-06T12:25:29.956Z,89.60
2018-09-06T12:26:30.419Z,89.59
2018-09-06T12:27:30.888Z,90.08
2018-09-06T12:28:31.364Z,90.44
2018-09-06T12:29:31.839Z,90.59
2018-09-06T12:30:32.464Z,90.88
2018-09-06T12:31:32.791Z,91.04
2018-09-06T12:32:33.359Z,91.35
2018-09-06T12:33:33.772Z,91.87
2018-09-06T12:34:34.213Z,92.32
2018-09-06T12:35:34.688Z,92.50
2018-09-06T12:36:35.166Z,92.22
2018-09-06T12:37:35.641Z,90.77
2018-09-06T12:38:36.117Z,89.72
2018-09-06T12:39:36.589Z,89.38
2018-09-06T12:40:37.066Z,91.31
2018-09-06T12:41:37.542Z,91.89
2018-09-06T12:42:38.017Z,92.36
2018-09-06T12:43:38.490Z,92.40
2018-09-06T12:44:38.969Z,92.26
2018-09-06T12:45:39.443Z,91.49
2018-09-06T12:46:39.917Z,90.42
2018-09-06T12:47:40.393Z,89.74
2018-09-06T12:48:40.870Z,89.22
2018-09-06T12:49:41.427Z,87.45
2018-09-06T12:50:41.824Z,87.78
2018-09-06T12:51:42.296Z,88.43
2018-09-06T12:52:42.769Z,88.86
2018-09-06T12:53:43.451Z,88.52
2018-09-06T12:54:43.724Z,88.11
2018-09-06T12:55:44.197Z,88.15
2018-09-06T12:56:44.671Z,89.06
2018-09-06T12:57:45.147Z,90.24
2018-09-06T12:58:45.624Z,90.81
2018-09-06T12:59:46.124Z,90.72
2018-09-06T13:00:46.573Z,90.76
2018-09-06T13:01:47.051Z,90.90
2018-09-06T13:02:47.526Z,87.99
2018-09-06T13:03:48.000Z,90.48
2018-09-06T13:04:48.476Z,92.10